Galena, Nevada Weather observations

Data are for 10 minute period ending at time listed.
 Day   Time    Ave.   Ave.  Ave.  Vector   Max.   Total    Solar   
  of    of     Air    Rel.  Wind   Wind    Wind  Precip.   Rad.    
Year   Day     Temp.  Hum.  Speed  Dir.    Gust                    
2017   (PST)    F      %     mph   deg.    mph     in.     W/m2    
------------------------------------------------------------------- 
  23   14:00   27.0    86    3.0    12      8.0   21.17     298  
  23   15:00   27.0    85    5.0    30      8.0   21.19     239  
  23   16:00   30.0    83    3.0    35      7.0   21.24     332  
  23   17:00   23.0    89    2.0   298      4.0   21.24      32  
  23   18:00   21.0    89    2.0   288      4.0   21.24       3  
  23   19:00   20.0    89    4.0   298      6.0   21.24       0  
  23   20:00   18.0    85    2.0   259      8.0   21.24       0  
  23   21:00   16.0    87    7.0   317      8.0   21.24       0  
  23   22:00   16.0    87    7.0   307      9.0   21.24       0  
  23   23:00   16.0    89    3.0   273      7.0   21.24       0  
  24    0:00   16.0    88    4.0   273      6.0   21.24       0  
  24    1:00   16.0    88    1.0   341      6.0   21.24       0  
  24    2:00   15.0    88    1.0   265      7.0   21.24       0  
  24    3:00   14.0    87    2.0   320      4.0   21.24       0  
  24    4:00   13.0    85    3.0   298      5.0   21.24       0  
  24    5:00   15.0    86    5.0   327      7.0   21.24       0  
  24    6:00   17.0    87    0.0   313      6.0   21.24       0  
  24    7:00   21.0    86    5.0   302      8.0   21.24       0  
  24    8:00   20.0    88    0.0   241      8.0   21.24       7  
  24    9:00   24.0    83    3.0    10      5.0   21.24     101  
  24   10:00   29.0    79    1.0    64      6.0   21.25     353  
  24   11:00   31.0    75    2.0   159      4.0   21.29     501  
  24   12:00   31.0    73    2.0    22      5.0   21.33     574  
  24   13:00   38.0    72    0.0    88      3.0   21.36     592  

Return to Galena, Nevada graphs page.


Western Regional Climate Center,wrcc@dri.edu